sensor_id;sensor_type;location;lat;lon;timestamp;P1;durP1;ratioP1;P2;durP2;ratioP2
8982;SDS011;20979;59.850;10.660;2023-12-07T00:01:38;9.73;;;5.60;;
8982;SDS011;20979;59.850;10.660;2023-12-07T00:04:05;7.43;;;6.20;;
8982;SDS011;20979;59.850;10.660;2023-12-07T00:06:33;6.40;;;5.10;;
8982;SDS011;20979;59.850;10.660;2023-12-07T00:09:00;10.83;;;6.20;;
8982;SDS011;20979;59.850;10.660;2023-12-07T00:11:28;6.87;;;5.80;;
8982;SDS011;20979;59.850;10.660;2023-12-07T00:13:56;6.80;;;5.53;;
8982;SDS011;20979;59.850;10.660;2023-12-07T00:16:24;6.70;;;5.97;;
8982;SDS011;20979;59.850;10.660;2023-12-07T00:18:51;7.70;;;5.33;;
8982;SDS011;20979;59.850;10.660;2023-12-07T00:21:19;8.60;;;5.60;;
8982;SDS011;20979;59.850;10.660;2023-12-07T00:23:46;8.30;;;5.73;;
8982;SDS011;20979;59.850;10.660;2023-12-07T00:26:13;6.70;;;5.73;;
8982;SDS011;20979;59.850;10.660;2023-12-07T00:28:41;6.83;;;5.93;;
8982;SDS011;20979;59.850;10.660;2023-12-07T00:31:10;7.50;;;5.07;;
8982;SDS011;20979;59.850;10.660;2023-12-07T00:33:38;7.20;;;4.83;;
8982;SDS011;20979;59.850;10.660;2023-12-07T00:36:05;6.27;;;5.03;;
8982;SDS011;20979;59.850;10.660;2023-12-07T00:38:33;6.07;;;4.53;;
8982;SDS011;20979;59.850;10.660;2023-12-07T00:41:01;6.53;;;4.67;;
8982;SDS011;20979;59.850;10.660;2023-12-07T00:43:28;6.10;;;4.80;;
8982;SDS011;20979;59.850;10.660;2023-12-07T00:45:56;6.87;;;5.23;;
8982;SDS011;20979;59.850;10.660;2023-12-07T00:48:25;6.47;;;5.23;;
8982;SDS011;20979;59.850;10.660;2023-12-07T00:50:52;6.23;;;5.13;;
8982;SDS011;20979;59.850;10.660;2023-12-07T00:53:20;7.37;;;4.93;;
8982;SDS011;20979;59.850;10.660;2023-12-07T00:55:47;6.77;;;5.30;;
8982;SDS011;20979;59.850;10.660;2023-12-07T00:58:15;7.80;;;5.13;;
8982;SDS011;20979;59.850;10.660;2023-12-07T01:00:42;7.30;;;5.10;;
8982;SDS011;20979;59.850;10.660;2023-12-07T01:03:09;6.33;;;5.10;;
8982;SDS011;20979;59.850;10.660;2023-12-07T01:05:38;7.43;;;5.70;;
8982;SDS011;20979;59.850;10.660;2023-12-07T01:08:06;7.70;;;5.77;;
8982;SDS011;20979;59.850;10.660;2023-12-07T01:10:33;8.33;;;5.97;;
8982;SDS011;20979;59.850;10.660;2023-12-07T01:13:00;5.57;;;5.07;;
8982;SDS011;20979;59.850;10.660;2023-12-07T01:15:28;7.33;;;5.60;;
8982;SDS011;20979;59.850;10.660;2023-12-07T01:17:56;7.13;;;5.57;;
8982;SDS011;20979;59.850;10.660;2023-12-07T01:20:23;6.20;;;5.53;;
8982;SDS011;20979;59.850;10.660;2023-12-07T01:22:52;7.57;;;5.47;;
8982;SDS011;20979;59.850;10.660;2023-12-07T01:25:19;6.97;;;5.30;;
8982;SDS011;20979;59.850;10.660;2023-12-07T01:27:47;6.33;;;4.97;;
8982;SDS011;20979;59.850;10.660;2023-12-07T01:30:14;8.30;;;5.60;;
8982;SDS011;20979;59.850;10.660;2023-12-07T01:32:42;7.30;;;5.60;;
8982;SDS011;20979;59.850;10.660;2023-12-07T01:35:09;8.07;;;5.63;;
8982;SDS011;20979;59.850;10.660;2023-12-07T01:37:37;7.17;;;5.20;;
8982;SDS011;20979;59.850;10.660;2023-12-07T01:40:07;6.83;;;5.13;;
8982;SDS011;20979;59.850;10.660;2023-12-07T01:42:35;7.73;;;5.67;;
8982;SDS011;20979;59.850;10.660;2023-12-07T01:45:03;6.43;;;5.10;;
8982;SDS011;20979;59.850;10.660;2023-12-07T01:47:31;10.60;;;5.30;;
8982;SDS011;20979;59.850;10.660;2023-12-07T01:49:59;7.63;;;5.80;;
8982;SDS011;20979;59.850;10.660;2023-12-07T01:52:29;7.20;;;5.30;;
8982;SDS011;20979;59.850;10.660;2023-12-07T01:54:57;5.97;;;5.00;;
8982;SDS011;20979;59.850;10.660;2023-12-07T01:57:26;7.03;;;5.00;;
8982;SDS011;20979;59.850;10.660;2023-12-07T01:59:54;7.30;;;5.03;;
8982;SDS011;20979;59.850;10.660;2023-12-07T02:02:21;6.67;;;5.30;;
8982;SDS011;20979;59.850;10.660;2023-12-07T02:04:49;6.83;;;5.40;;
8982;SDS011;20979;59.850;10.660;2023-12-07T02:07:16;5.60;;;5.00;;
8982;SDS011;20979;59.850;10.660;2023-12-07T02:09:44;6.93;;;5.23;;
8982;SDS011;20979;59.850;10.660;2023-12-07T02:12:12;6.77;;;5.30;;
8982;SDS011;20979;59.850;10.660;2023-12-07T02:14:41;7.17;;;5.30;;
8982;SDS011;20979;59.850;10.660;2023-12-07T02:17:10;7.80;;;5.83;;
8982;SDS011;20979;59.850;10.660;2023-12-07T02:19:50;6.10;;;5.17;;
8982;SDS011;20979;59.850;10.660;2023-12-07T02:22:21;10.30;;;5.00;;
8982;SDS011;20979;59.850;10.660;2023-12-07T02:24:52;7.43;;;5.10;;
8982;SDS011;20979;59.850;10.660;2023-12-07T02:27:34;5.83;;;5.17;;
8982;SDS011;20979;59.850;10.660;2023-12-07T02:30:01;6.77;;;5.33;;
8982;SDS011;20979;59.850;10.660;2023-12-07T02:32:29;6.87;;;4.73;;
8982;SDS011;20979;59.850;10.660;2023-12-07T02:34:56;7.33;;;4.93;;
8982;SDS011;20979;59.850;10.660;2023-12-07T02:37:25;5.50;;;5.00;;
8982;SDS011;20979;59.850;10.660;2023-12-07T02:39:54;5.33;;;4.83;;
8982;SDS011;20979;59.850;10.660;2023-12-07T02:42:22;5.63;;;4.83;;
8982;SDS011;20979;59.850;10.660;2023-12-07T02:44:52;7.13;;;5.10;;
8982;SDS011;20979;59.850;10.660;2023-12-07T02:47:20;5.90;;;5.03;;
8982;SDS011;20979;59.850;10.660;2023-12-07T02:49:48;6.73;;;4.77;;
8982;SDS011;20979;59.850;10.660;2023-12-07T02:52:15;6.73;;;4.90;;
8982;SDS011;20979;59.850;10.660;2023-12-07T02:54:42;6.33;;;5.33;;
8982;SDS011;20979;59.850;10.660;2023-12-07T02:57:10;5.87;;;5.03;;
8982;SDS011;20979;59.850;10.660;2023-12-07T02:59:37;6.07;;;4.77;;
8982;SDS011;20979;59.850;10.660;2023-12-07T03:02:06;6.23;;;4.73;;
8982;SDS011;20979;59.850;10.660;2023-12-07T03:04:33;5.70;;;5.10;;
8982;SDS011;20979;59.850;10.660;2023-12-07T03:07:01;4.83;;;4.33;;
8982;SDS011;20979;59.850;10.660;2023-12-07T03:09:28;5.13;;;4.60;;
8982;SDS011;20979;59.850;10.660;2023-12-07T03:11:56;5.63;;;4.70;;
8982;SDS011;20979;59.850;10.660;2023-12-07T03:14:23;5.30;;;4.80;;
8982;SDS011;20979;59.850;10.660;2023-12-07T03:16:51;5.37;;;4.73;;
8982;SDS011;20979;59.850;10.660;2023-12-07T03:19:20;5.77;;;4.63;;
8982;SDS011;20979;59.850;10.660;2023-12-07T03:21:47;5.93;;;4.63;;
8982;SDS011;20979;59.850;10.660;2023-12-07T03:24:15;6.67;;;4.40;;
8982;SDS011;20979;59.850;10.660;2023-12-07T03:26:42;5.33;;;4.60;;
8982;SDS011;20979;59.850;10.660;2023-12-07T03:29:10;6.03;;;4.70;;
8982;SDS011;20979;59.850;10.660;2023-12-07T03:31:37;6.87;;;4.73;;
8982;SDS011;20979;59.850;10.660;2023-12-07T03:34:04;5.43;;;4.70;;
8982;SDS011;20979;59.850;10.660;2023-12-07T03:36:33;4.40;;;4.00;;
8982;SDS011;20979;59.850;10.660;2023-12-07T03:39:01;4.50;;;4.10;;
8982;SDS011;20979;59.850;10.660;2023-12-07T03:41:30;4.73;;;3.97;;
8982;SDS011;20979;59.850;10.660;2023-12-07T03:43:57;5.37;;;4.63;;
8982;SDS011;20979;59.850;10.660;2023-12-07T03:46:25;5.07;;;4.23;;
8982;SDS011;20979;59.850;10.660;2023-12-07T03:48:52;5.57;;;4.30;;
8982;SDS011;20979;59.850;10.660;2023-12-07T03:51:19;5.13;;;4.33;;
8982;SDS011;20979;59.850;10.660;2023-12-07T03:53:48;4.93;;;4.10;;
8982;SDS011;20979;59.850;10.660;2023-12-07T03:56:22;4.53;;;3.90;;
8982;SDS011;20979;59.850;10.660;2023-12-07T03:58:49;4.33;;;3.80;;
8982;SDS011;20979;59.850;10.660;2023-12-07T04:01:17;5.60;;;4.23;;
8982;SDS011;20979;59.850;10.660;2023-12-07T04:03:44;3.97;;;3.60;;
8982;SDS011;20979;59.850;10.660;2023-12-07T04:06:12;4.77;;;3.80;;
8982;SDS011;20979;59.850;10.660;2023-12-07T04:08:40;4.87;;;4.10;;
8982;SDS011;20979;59.850;10.660;2023-12-07T04:11:09;5.37;;;4.07;;
8982;SDS011;20979;59.850;10.660;2023-12-07T04:13:36;4.80;;;4.00;;
8982;SDS011;20979;59.850;10.660;2023-12-07T04:16:04;5.40;;;4.10;;
8982;SDS011;20979;59.850;10.660;2023-12-07T04:18:31;4.97;;;4.20;;
8982;SDS011;20979;59.850;10.660;2023-12-07T04:20:59;4.20;;;3.60;;
8982;SDS011;20979;59.850;10.660;2023-12-07T04:23:26;4.57;;;3.70;;
8982;SDS011;20979;59.850;10.660;2023-12-07T04:25:54;7.40;;;4.47;;
8982;SDS011;20979;59.850;10.660;2023-12-07T04:28:23;4.47;;;3.87;;
8982;SDS011;20979;59.850;10.660;2023-12-07T04:30:50;5.80;;;4.07;;
8982;SDS011;20979;59.850;10.660;2023-12-07T04:33:18;5.27;;;4.03;;
8982;SDS011;20979;59.850;10.660;2023-12-07T04:35:45;4.93;;;4.20;;
8982;SDS011;20979;59.850;10.660;2023-12-07T04:38:13;4.27;;;3.87;;
8982;SDS011;20979;59.850;10.660;2023-12-07T04:40:40;5.23;;;4.10;;
8982;SDS011;20979;59.850;10.660;2023-12-07T04:43:08;5.83;;;3.93;;
8982;SDS011;20979;59.850;10.660;2023-12-07T04:45:37;4.47;;;3.83;;
8982;SDS011;20979;59.850;10.660;2023-12-07T04:48:04;4.57;;;3.60;;
8982;SDS011;20979;59.850;10.660;2023-12-07T04:50:32;4.03;;;3.63;;
8982;SDS011;20979;59.850;10.660;2023-12-07T04:53:00;3.80;;;3.27;;
8982;SDS011;20979;59.850;10.660;2023-12-07T04:55:28;4.43;;;3.70;;
8982;SDS011;20979;59.850;10.660;2023-12-07T04:57:55;6.43;;;4.07;;
8982;SDS011;20979;59.850;10.660;2023-12-07T05:00:22;4.20;;;3.80;;
8982;SDS011;20979;59.850;10.660;2023-12-07T05:02:51;4.03;;;3.63;;
8982;SDS011;20979;59.850;10.660;2023-12-07T05:05:19;4.40;;;4.00;;
8982;SDS011;20979;59.850;10.660;2023-12-07T05:07:46;4.67;;;4.00;;
8982;SDS011;20979;59.850;10.660;2023-12-07T05:10:14;5.40;;;3.70;;
8982;SDS011;20979;59.850;10.660;2023-12-07T05:12:40;5.27;;;4.10;;
8982;SDS011;20979;59.850;10.660;2023-12-07T05:15:08;5.17;;;3.83;;
8982;SDS011;20979;59.850;10.660;2023-12-07T05:17:35;4.27;;;3.87;;
8982;SDS011;20979;59.850;10.660;2023-12-07T05:20:05;5.07;;;4.10;;
8982;SDS011;20979;59.850;10.660;2023-12-07T05:22:32;5.27;;;4.10;;
8982;SDS011;20979;59.850;10.660;2023-12-07T05:25:00;4.30;;;3.73;;
8982;SDS011;20979;59.850;10.660;2023-12-07T05:27:28;4.37;;;3.83;;
8982;SDS011;20979;59.850;10.660;2023-12-07T05:29:55;4.87;;;4.17;;
8982;SDS011;20979;59.850;10.660;2023-12-07T05:32:22;5.63;;;4.03;;
8982;SDS011;20979;59.850;10.660;2023-12-07T05:34:50;5.80;;;4.17;;
8982;SDS011;20979;59.850;10.660;2023-12-07T05:37:19;5.23;;;3.57;;
8982;SDS011;20979;59.850;10.660;2023-12-07T05:39:46;4.20;;;3.80;;
8982;SDS011;20979;59.850;10.660;2023-12-07T05:42:14;4.97;;;3.93;;
8982;SDS011;20979;59.850;10.660;2023-12-07T05:44:41;3.97;;;3.57;;
8982;SDS011;20979;59.850;10.660;2023-12-07T05:47:09;4.77;;;4.00;;
8982;SDS011;20979;59.850;10.660;2023-12-07T05:49:36;5.63;;;4.60;;
8982;SDS011;20979;59.850;10.660;2023-12-07T05:52:04;4.63;;;3.70;;
8982;SDS011;20979;59.850;10.660;2023-12-07T05:54:33;4.23;;;3.70;;
8982;SDS011;20979;59.850;10.660;2023-12-07T05:57:00;6.13;;;4.20;;
8982;SDS011;20979;59.850;10.660;2023-12-07T05:59:28;5.07;;;4.17;;
8982;SDS011;20979;59.850;10.660;2023-12-07T06:01:55;4.57;;;3.93;;
8982;SDS011;20979;59.850;10.660;2023-12-07T06:04:23;6.47;;;4.10;;
8982;SDS011;20979;59.850;10.660;2023-12-07T06:06:51;4.77;;;4.27;;
8982;SDS011;20979;59.850;10.660;2023-12-07T06:09:18;5.30;;;3.97;;
8982;SDS011;20979;59.850;10.660;2023-12-07T06:11:47;4.87;;;3.90;;
8982;SDS011;20979;59.850;10.660;2023-12-07T06:14:14;5.53;;;3.97;;
8982;SDS011;20979;59.850;10.660;2023-12-07T06:16:42;6.07;;;4.63;;
8982;SDS011;20979;59.850;10.660;2023-12-07T06:19:09;4.33;;;3.93;;
8982;SDS011;20979;59.850;10.660;2023-12-07T06:21:37;5.53;;;3.90;;
8982;SDS011;20979;59.850;10.660;2023-12-07T06:24:04;4.03;;;3.63;;
8982;SDS011;20979;59.850;10.660;2023-12-07T06:26:32;4.73;;;3.53;;
8982;SDS011;20979;59.850;10.660;2023-12-07T06:29:01;5.03;;;4.13;;
8982;SDS011;20979;59.850;10.660;2023-12-07T06:31:28;4.63;;;3.80;;
8982;SDS011;20979;59.850;10.660;2023-12-07T06:33:56;4.70;;;3.80;;
8982;SDS011;20979;59.850;10.660;2023-12-07T06:36:25;5.13;;;4.40;;
8982;SDS011;20979;59.850;10.660;2023-12-07T06:38:52;5.80;;;4.13;;
8982;SDS011;20979;59.850;10.660;2023-12-07T06:41:21;4.53;;;4.10;;
8982;SDS011;20979;59.850;10.660;2023-12-07T06:43:49;5.47;;;3.57;;
8982;SDS011;20979;59.850;10.660;2023-12-07T06:46:18;5.00;;;3.73;;
8982;SDS011;20979;59.850;10.660;2023-12-07T06:48:46;6.00;;;4.30;;
8982;SDS011;20979;59.850;10.660;2023-12-07T06:51:13;5.93;;;4.07;;
8982;SDS011;20979;59.850;10.660;2023-12-07T06:53:41;6.10;;;4.00;;
8982;SDS011;20979;59.850;10.660;2023-12-07T06:56:08;4.80;;;3.87;;
8982;SDS011;20979;59.850;10.660;2023-12-07T06:58:36;4.13;;;3.73;;
8982;SDS011;20979;59.850;10.660;2023-12-07T07:01:03;5.23;;;4.20;;
8982;SDS011;20979;59.850;10.660;2023-12-07T07:03:32;5.40;;;4.63;;
8982;SDS011;20979;59.850;10.660;2023-12-07T07:06:00;5.10;;;4.10;;
8982;SDS011;20979;59.850;10.660;2023-12-07T07:08:27;5.90;;;3.80;;
8982;SDS011;20979;59.850;10.660;2023-12-07T07:10:55;4.53;;;3.83;;
8982;SDS011;20979;59.850;10.660;2023-12-07T07:13:23;4.63;;;3.97;;
8982;SDS011;20979;59.850;10.660;2023-12-07T07:15:50;4.40;;;4.00;;
8982;SDS011;20979;59.850;10.660;2023-12-07T07:18:19;4.03;;;3.73;;
8982;SDS011;20979;59.850;10.660;2023-12-07T07:20:50;3.93;;;3.50;;
8982;SDS011;20979;59.850;10.660;2023-12-07T07:23:17;4.50;;;3.47;;
8982;SDS011;20979;59.850;10.660;2023-12-07T07:25:45;4.27;;;3.80;;
8982;SDS011;20979;59.850;10.660;2023-12-07T07:28:12;6.27;;;4.00;;
8982;SDS011;20979;59.850;10.660;2023-12-07T07:30:40;6.10;;;4.23;;
8982;SDS011;20979;59.850;10.660;2023-12-07T07:33:07;5.73;;;3.77;;
8982;SDS011;20979;59.850;10.660;2023-12-07T07:35:34;4.70;;;3.67;;
8982;SDS011;20979;59.850;10.660;2023-12-07T07:38:03;4.13;;;3.73;;
8982;SDS011;20979;59.850;10.660;2023-12-07T07:40:31;4.47;;;3.87;;
8982;SDS011;20979;59.850;10.660;2023-12-07T07:42:58;4.70;;;3.87;;
8982;SDS011;20979;59.850;10.660;2023-12-07T07:45:26;5.20;;;3.77;;
8982;SDS011;20979;59.850;10.660;2023-12-07T07:47:53;5.63;;;4.20;;
8982;SDS011;20979;59.850;10.660;2023-12-07T07:50:21;5.43;;;4.13;;
8982;SDS011;20979;59.850;10.660;2023-12-07T07:52:49;6.67;;;4.20;;
8982;SDS011;20979;59.850;10.660;2023-12-07T07:55:18;4.93;;;3.77;;
8982;SDS011;20979;59.850;10.660;2023-12-07T07:57:45;5.90;;;4.17;;
8982;SDS011;20979;59.850;10.660;2023-12-07T08:00:13;4.57;;;4.10;;
8982;SDS011;20979;59.850;10.660;2023-12-07T08:02:41;5.13;;;4.00;;
8982;SDS011;20979;59.850;10.660;2023-12-07T08:05:08;7.13;;;4.30;;
8982;SDS011;20979;59.850;10.660;2023-12-07T08:07:36;4.90;;;4.03;;
8982;SDS011;20979;59.850;10.660;2023-12-07T08:10:04;4.30;;;3.90;;
8982;SDS011;20979;59.850;10.660;2023-12-07T08:12:33;5.00;;;4.50;;
8982;SDS011;20979;59.850;10.660;2023-12-07T08:15:01;6.50;;;4.20;;
8982;SDS011;20979;59.850;10.660;2023-12-07T08:17:29;6.27;;;4.50;;
8982;SDS011;20979;59.850;10.660;2023-12-07T08:19:57;5.23;;;4.37;;
8982;SDS011;20979;59.850;10.660;2023-12-07T08:22:24;6.47;;;4.47;;
8982;SDS011;20979;59.850;10.660;2023-12-07T08:24:53;5.03;;;4.03;;
8982;SDS011;20979;59.850;10.660;2023-12-07T08:27:20;4.47;;;4.07;;
8982;SDS011;20979;59.850;10.660;2023-12-07T08:29:49;4.77;;;3.87;;
8982;SDS011;20979;59.850;10.660;2023-12-07T08:32:16;4.90;;;4.13;;
8982;SDS011;20979;59.850;10.660;2023-12-07T08:34:44;6.43;;;4.03;;
8982;SDS011;20979;59.850;10.660;2023-12-07T08:37:12;6.30;;;3.87;;
8982;SDS011;20979;59.850;10.660;2023-12-07T08:39:39;5.60;;;3.80;;
8982;SDS011;20979;59.850;10.660;2023-12-07T08:42:06;5.37;;;4.13;;
8982;SDS011;20979;59.850;10.660;2023-12-07T08:44:35;5.03;;;4.30;;
8982;SDS011;20979;59.850;10.660;2023-12-07T08:47:04;5.00;;;4.00;;
8982;SDS011;20979;59.850;10.660;2023-12-07T08:49:31;7.83;;;4.30;;
8982;SDS011;20979;59.850;10.660;2023-12-07T08:51:59;4.17;;;3.77;;
8982;SDS011;20979;59.850;10.660;2023-12-07T08:54:26;5.27;;;3.97;;
8982;SDS011;20979;59.850;10.660;2023-12-07T08:56:54;6.00;;;4.47;;
8982;SDS011;20979;59.850;10.660;2023-12-07T08:59:22;5.13;;;3.70;;
8982;SDS011;20979;59.850;10.660;2023-12-07T09:01:49;4.77;;;4.00;;
8982;SDS011;20979;59.850;10.660;2023-12-07T09:04:18;5.13;;;4.10;;
8982;SDS011;20979;59.850;10.660;2023-12-07T09:06:45;6.97;;;3.93;;
8982;SDS011;20979;59.850;10.660;2023-12-07T09:09:13;4.87;;;4.30;;
8982;SDS011;20979;59.850;10.660;2023-12-07T09:11:40;4.90;;;3.87;;
8982;SDS011;20979;59.850;10.660;2023-12-07T09:14:08;6.23;;;3.93;;
8982;SDS011;20979;59.850;10.660;2023-12-07T09:16:42;5.10;;;3.70;;
8982;SDS011;20979;59.850;10.660;2023-12-07T09:19:10;5.20;;;4.03;;
8982;SDS011;20979;59.850;10.660;2023-12-07T09:21:38;6.77;;;4.23;;
8982;SDS011;20979;59.850;10.660;2023-12-07T09:24:06;5.47;;;3.80;;
8982;SDS011;20979;59.850;10.660;2023-12-07T09:26:34;5.47;;;4.10;;
8982;SDS011;20979;59.850;10.660;2023-12-07T09:29:02;7.87;;;4.20;;
8982;SDS011;20979;59.850;10.660;2023-12-07T09:31:30;6.33;;;4.30;;
8982;SDS011;20979;59.850;10.660;2023-12-07T09:33:57;4.37;;;3.60;;
8982;SDS011;20979;59.850;10.660;2023-12-07T09:36:24;4.30;;;3.80;;
8982;SDS011;20979;59.850;10.660;2023-12-07T09:38:54;4.73;;;4.17;;
8982;SDS011;20979;59.850;10.660;2023-12-07T09:41:22;5.80;;;4.27;;
8982;SDS011;20979;59.850;10.660;2023-12-07T09:43:50;5.70;;;4.27;;
8982;SDS011;20979;59.850;10.660;2023-12-07T09:46:18;4.90;;;4.03;;
8982;SDS011;20979;59.850;10.660;2023-12-07T09:48:46;5.50;;;4.20;;
8982;SDS011;20979;59.850;10.660;2023-12-07T09:51:15;5.30;;;3.97;;
8982;SDS011;20979;59.850;10.660;2023-12-07T09:53:43;4.27;;;3.73;;
8982;SDS011;20979;59.850;10.660;2023-12-07T09:56:13;5.13;;;4.07;;
8982;SDS011;20979;59.850;10.660;2023-12-07T09:58:41;4.63;;;3.93;;
8982;SDS011;20979;59.850;10.660;2023-12-07T10:01:08;4.23;;;3.83;;
8982;SDS011;20979;59.850;10.660;2023-12-07T10:03:39;4.10;;;3.70;;
8982;SDS011;20979;59.850;10.660;2023-12-07T10:06:06;4.97;;;4.17;;
8982;SDS011;20979;59.850;10.660;2023-12-07T10:08:33;5.10;;;4.13;;
8982;SDS011;20979;59.850;10.660;2023-12-07T10:11:05;5.50;;;4.00;;
8982;SDS011;20979;59.850;10.660;2023-12-07T10:13:35;4.73;;;4.20;;
8982;SDS011;20979;59.850;10.660;2023-12-07T10:16:09;5.37;;;4.10;;
8982;SDS011;20979;59.850;10.660;2023-12-07T10:18:38;5.33;;;4.00;;
8982;SDS011;20979;59.850;10.660;2023-12-07T10:21:06;7.70;;;4.40;;
8982;SDS011;20979;59.850;10.660;2023-12-07T10:23:34;9.07;;;4.57;;
8982;SDS011;20979;59.850;10.660;2023-12-07T10:26:02;5.07;;;4.30;;
8982;SDS011;20979;59.850;10.660;2023-12-07T10:28:30;5.07;;;4.13;;
8982;SDS011;20979;59.850;10.660;2023-12-07T10:30:59;5.70;;;4.07;;
8982;SDS011;20979;59.850;10.660;2023-12-07T10:33:26;6.30;;;4.23;;
8982;SDS011;20979;59.850;10.660;2023-12-07T10:35:53;5.60;;;4.33;;
8982;SDS011;20979;59.850;10.660;2023-12-07T10:38:21;4.63;;;4.03;;
8982;SDS011;20979;59.850;10.660;2023-12-07T10:40:49;5.27;;;4.33;;
8982;SDS011;20979;59.850;10.660;2023-12-07T10:43:18;6.17;;;4.47;;
8982;SDS011;20979;59.850;10.660;2023-12-07T10:45:46;6.93;;;4.80;;
8982;SDS011;20979;59.850;10.660;2023-12-07T10:48:16;7.57;;;5.07;;
8982;SDS011;20979;59.850;10.660;2023-12-07T10:50:45;5.53;;;4.50;;
8982;SDS011;20979;59.850;10.660;2023-12-07T10:53:15;6.03;;;4.23;;
8982;SDS011;20979;59.850;10.660;2023-12-07T10:55:47;5.17;;;3.63;;
8982;SDS011;20979;59.850;10.660;2023-12-07T10:58:18;5.37;;;3.63;;
8982;SDS011;20979;59.850;10.660;2023-12-07T11:00:46;5.90;;;4.00;;
8982;SDS011;20979;59.850;10.660;2023-12-07T11:03:16;4.47;;;3.90;;
8982;SDS011;20979;59.850;10.660;2023-12-07T11:05:44;5.73;;;3.77;;
8982;SDS011;20979;59.850;10.660;2023-12-07T11:08:14;5.87;;;4.00;;
8982;SDS011;20979;59.850;10.660;2023-12-07T11:10:47;6.23;;;4.50;;
8982;SDS011;20979;59.850;10.660;2023-12-07T11:13:17;5.47;;;4.00;;
8982;SDS011;20979;59.850;10.660;2023-12-07T11:15:44;6.97;;;4.70;;
8982;SDS011;20979;59.850;10.660;2023-12-07T11:18:12;4.97;;;3.70;;
8982;SDS011;20979;59.850;10.660;2023-12-07T11:20:42;4.13;;;3.60;;
8982;SDS011;20979;59.850;10.660;2023-12-07T11:23:11;4.00;;;3.60;;
8982;SDS011;20979;59.850;10.660;2023-12-07T11:25:40;4.00;;;3.60;;
8982;SDS011;20979;59.850;10.660;2023-12-07T11:28:10;4.53;;;3.80;;
8982;SDS011;20979;59.850;10.660;2023-12-07T11:30:37;3.87;;;3.37;;
8982;SDS011;20979;59.850;10.660;2023-12-07T11:33:05;5.20;;;3.60;;
8982;SDS011;20979;59.850;10.660;2023-12-07T11:35:33;4.43;;;3.67;;
8982;SDS011;20979;59.850;10.660;2023-12-07T11:38:18;4.47;;;3.60;;
8982;SDS011;20979;59.850;10.660;2023-12-07T11:40:45;4.67;;;3.57;;
8982;SDS011;20979;59.850;10.660;2023-12-07T11:43:16;5.93;;;3.70;;
8982;SDS011;20979;59.850;10.660;2023-12-07T11:45:47;4.73;;;3.20;;
8982;SDS011;20979;59.850;10.660;2023-12-07T11:48:15;3.70;;;3.00;;
8982;SDS011;20979;59.850;10.660;2023-12-07T11:50:53;3.70;;;3.33;;
8982;SDS011;20979;59.850;10.660;2023-12-07T11:53:22;3.27;;;2.87;;
8982;SDS011;20979;59.850;10.660;2023-12-07T11:55:50;3.97;;;3.27;;
8982;SDS011;20979;59.850;10.660;2023-12-07T11:58:17;3.63;;;3.10;;
8982;SDS011;20979;59.850;10.660;2023-12-07T12:00:45;4.30;;;3.50;;
8982;SDS011;20979;59.850;10.660;2023-12-07T12:03:12;5.67;;;3.70;;
8982;SDS011;20979;59.850;10.660;2023-12-07T12:05:40;4.13;;;3.53;;
8982;SDS011;20979;59.850;10.660;2023-12-07T12:08:09;5.03;;;3.40;;
8982;SDS011;20979;59.850;10.660;2023-12-07T12:10:39;4.93;;;3.10;;
8982;SDS011;20979;59.850;10.660;2023-12-07T12:13:07;4.47;;;3.50;;
8982;SDS011;20979;59.850;10.660;2023-12-07T12:15:35;4.07;;;3.37;;
8982;SDS011;20979;59.850;10.660;2023-12-07T12:18:02;3.97;;;3.40;;
8982;SDS011;20979;59.850;10.660;2023-12-07T12:20:30;3.30;;;3.00;;
8982;SDS011;20979;59.850;10.660;2023-12-07T12:22:58;3.70;;;3.13;;
8982;SDS011;20979;59.850;10.660;2023-12-07T12:25:26;4.30;;;3.30;;
8982;SDS011;20979;59.850;10.660;2023-12-07T12:27:57;5.17;;;3.10;;
8982;SDS011;20979;59.850;10.660;2023-12-07T12:30:26;4.50;;;3.20;;
8982;SDS011;20979;59.850;10.660;2023-12-07T12:32:55;2.83;;;2.63;;
8982;SDS011;20979;59.850;10.660;2023-12-07T12:35:22;4.43;;;3.17;;
8982;SDS011;20979;59.850;10.660;2023-12-07T12:37:50;4.53;;;3.30;;
8982;SDS011;20979;59.850;10.660;2023-12-07T12:40:17;4.17;;;3.33;;
8982;SDS011;20979;59.850;10.660;2023-12-07T12:42:45;6.10;;;4.10;;
8982;SDS011;20979;59.850;10.660;2023-12-07T12:45:15;10.00;;;6.17;;
8982;SDS011;20979;59.850;10.660;2023-12-07T12:47:43;6.20;;;4.93;;
8982;SDS011;20979;59.850;10.660;2023-12-07T12:50:11;5.87;;;4.13;;
8982;SDS011;20979;59.850;10.660;2023-12-07T12:52:39;4.93;;;4.13;;
8982;SDS011;20979;59.850;10.660;2023-12-07T12:55:07;4.77;;;4.10;;
8982;SDS011;20979;59.850;10.660;2023-12-07T12:57:36;4.63;;;3.87;;
8982;SDS011;20979;59.850;10.660;2023-12-07T13:00:04;6.17;;;4.30;;
8982;SDS011;20979;59.850;10.660;2023-12-07T13:02:34;5.50;;;4.17;;
8982;SDS011;20979;59.850;10.660;2023-12-07T13:05:03;5.47;;;4.00;;
8982;SDS011;20979;59.850;10.660;2023-12-07T13:07:32;5.73;;;4.00;;
8982;SDS011;20979;59.850;10.660;2023-12-07T13:10:00;6.17;;;4.30;;
8982;SDS011;20979;59.850;10.660;2023-12-07T13:12:28;5.43;;;4.10;;
8982;SDS011;20979;59.850;10.660;2023-12-07T13:14:59;5.27;;;4.20;;
8982;SDS011;20979;59.850;10.660;2023-12-07T13:17:27;5.33;;;4.30;;
8982;SDS011;20979;59.850;10.660;2023-12-07T13:19:56;5.53;;;4.20;;
8982;SDS011;20979;59.850;10.660;2023-12-07T13:22:23;6.53;;;4.90;;
8982;SDS011;20979;59.850;10.660;2023-12-07T13:24:50;5.57;;;4.50;;
8982;SDS011;20979;59.850;10.660;2023-12-07T13:27:18;6.50;;;4.60;;
8982;SDS011;20979;59.850;10.660;2023-12-07T13:29:45;5.47;;;4.87;;
8982;SDS011;20979;59.850;10.660;2023-12-07T13:32:13;5.90;;;4.70;;
8982;SDS011;20979;59.850;10.660;2023-12-07T13:34:40;6.40;;;5.07;;
8982;SDS011;20979;59.850;10.660;2023-12-07T13:37:09;6.70;;;4.90;;
8982;SDS011;20979;59.850;10.660;2023-12-07T13:39:36;5.47;;;4.40;;
8982;SDS011;20979;59.850;10.660;2023-12-07T13:42:04;6.67;;;4.57;;
8982;SDS011;20979;59.850;10.660;2023-12-07T13:44:33;8.63;;;5.03;;
8982;SDS011;20979;59.850;10.660;2023-12-07T13:47:01;6.13;;;4.83;;
8982;SDS011;20979;59.850;10.660;2023-12-07T13:49:29;5.07;;;4.10;;
8982;SDS011;20979;59.850;10.660;2023-12-07T13:51:56;9.57;;;5.20;;
8982;SDS011;20979;59.850;10.660;2023-12-07T13:54:26;9.00;;;4.77;;
8982;SDS011;20979;59.850;10.660;2023-12-07T13:56:54;8.07;;;5.33;;
8982;SDS011;20979;59.850;10.660;2023-12-07T13:59:21;9.63;;;5.20;;
8982;SDS011;20979;59.850;10.660;2023-12-07T14:01:49;6.83;;;4.70;;
8982;SDS011;20979;59.850;10.660;2023-12-07T14:04:18;6.03;;;4.83;;
8982;SDS011;20979;59.850;10.660;2023-12-07T14:06:45;8.37;;;5.23;;
8982;SDS011;20979;59.850;10.660;2023-12-07T14:09:13;6.07;;;4.57;;
8982;SDS011;20979;59.850;10.660;2023-12-07T14:11:43;6.60;;;4.80;;
8982;SDS011;20979;59.850;10.660;2023-12-07T14:14:10;6.53;;;4.90;;
8982;SDS011;20979;59.850;10.660;2023-12-07T14:16:38;11.67;;;5.60;;
8982;SDS011;20979;59.850;10.660;2023-12-07T14:19:06;6.03;;;5.07;;
8982;SDS011;20979;59.850;10.660;2023-12-07T14:21:34;5.63;;;4.40;;
8982;SDS011;20979;59.850;10.660;2023-12-07T14:24:01;7.70;;;4.73;;
8982;SDS011;20979;59.850;10.660;2023-12-07T14:26:29;7.40;;;4.57;;
8982;SDS011;20979;59.850;10.660;2023-12-07T14:28:58;8.20;;;4.93;;
8982;SDS011;20979;59.850;10.660;2023-12-07T14:31:25;9.07;;;4.63;;
8982;SDS011;20979;59.850;10.660;2023-12-07T14:33:52;6.13;;;5.07;;
8982;SDS011;20979;59.850;10.660;2023-12-07T14:36:20;6.83;;;5.37;;
8982;SDS011;20979;59.850;10.660;2023-12-07T14:38:48;6.13;;;4.63;;
8982;SDS011;20979;59.850;10.660;2023-12-07T14:41:15;7.43;;;4.90;;
8982;SDS011;20979;59.850;10.660;2023-12-07T14:43:43;5.87;;;4.60;;
8982;SDS011;20979;59.850;10.660;2023-12-07T14:46:12;7.80;;;4.93;;
8982;SDS011;20979;59.850;10.660;2023-12-07T14:48:39;5.97;;;4.23;;
8982;SDS011;20979;59.850;10.660;2023-12-07T14:51:07;5.30;;;4.80;;
8982;SDS011;20979;59.850;10.660;2023-12-07T14:53:38;7.17;;;4.63;;